sensor_id;sensor_type;location;lat;lon;timestamp;pressure;altitude;pressure_sealevel;temperature;humidity
36258;BME280;22294;52.044;4.582;2022-08-21T00:00:07;75934.44;;;-144.37;64.89
36258;BME280;22294;52.044;4.582;2022-08-21T00:02:33;75940.59;;;-144.37;64.78
36258;BME280;22294;52.044;4.582;2022-08-21T00:04:58;75936.50;;;-144.37;65.05
36258;BME280;22294;52.044;4.582;2022-08-21T00:07:24;75936.50;;;-144.37;65.06
36258;BME280;22294;52.044;4.582;2022-08-21T00:09:51;75940.59;;;-144.37;65.08
36258;BME280;22294;52.044;4.582;2022-08-21T00:12:16;75940.59;;;-144.37;65.09
36258;BME280;22294;52.044;4.582;2022-08-21T00:14:42;75946.72;;;-144.37;65.09
36258;BME280;22294;52.044;4.582;2022-08-21T00:17:07;75946.72;;;-144.37;65.77
36258;BME280;22294;52.044;4.582;2022-08-21T00:19:33;75946.72;;;-144.37;65.54
36258;BME280;22294;52.044;4.582;2022-08-21T00:21:58;75946.72;;;-144.37;65.71
36258;BME280;22294;52.044;4.582;2022-08-21T00:24:24;75948.75;;;-144.37;65.82
36258;BME280;22294;52.044;4.582;2022-08-21T00:26:50;75950.81;;;-144.37;65.91
36258;BME280;22294;52.044;4.582;2022-08-21T00:29:17;75950.81;;;-144.37;66.16
36258;BME280;22294;52.044;4.582;2022-08-21T00:31:43;75950.81;;;-144.37;66.08
36258;BME280;22294;52.044;4.582;2022-08-21T00:34:09;75940.59;;;-144.37;66.26
36258;BME280;22294;52.044;4.582;2022-08-21T00:36:36;75944.69;;;-144.37;66.56
36258;BME280;22294;52.044;4.582;2022-08-21T00:39:04;75936.50;;;-144.37;66.36
36258;BME280;22294;52.044;4.582;2022-08-21T00:41:30;75938.53;;;-144.37;66.35
36258;BME280;22294;52.044;4.582;2022-08-21T00:43:56;75938.53;;;-144.37;66.29
36258;BME280;22294;52.044;4.582;2022-08-21T00:46:22;75936.50;;;-144.37;66.00
36258;BME280;22294;52.044;4.582;2022-08-21T00:48:47;75930.38;;;-144.37;66.06
36258;BME280;22294;52.044;4.582;2022-08-21T00:51:24;75936.50;;;-144.37;66.01
36258;BME280;22294;52.044;4.582;2022-08-21T00:53:56;75930.38;;;-144.37;66.06
36258;BME280;22294;52.044;4.582;2022-08-21T00:56:22;75926.28;;;-144.37;66.34
36258;BME280;22294;52.044;4.582;2022-08-21T00:58:49;75926.28;;;-144.37;66.40
36258;BME280;22294;52.044;4.582;2022-08-21T01:01:16;75926.28;;;-144.37;66.24
36258;BME280;22294;52.044;4.582;2022-08-21T01:03:41;75930.38;;;-144.37;66.06
36258;BME280;22294;52.044;4.582;2022-08-21T01:06:07;75932.41;;;-144.37;65.90
36258;BME280;22294;52.044;4.582;2022-08-21T01:08:35;75940.59;;;-144.37;66.15
36258;BME280;22294;52.044;4.582;2022-08-21T01:11:01;75940.59;;;-144.37;66.04
36258;BME280;22294;52.044;4.582;2022-08-21T01:13:29;75940.59;;;-144.37;66.46
36258;BME280;22294;52.044;4.582;2022-08-21T01:15:56;75942.63;;;-144.37;65.91
36258;BME280;22294;52.044;4.582;2022-08-21T01:18:25;75944.69;;;-144.37;66.16
36258;BME280;22294;52.044;4.582;2022-08-21T01:23:23;75950.81;;;-144.37;66.50
36258;BME280;22294;52.044;4.582;2022-08-21T01:25:48;75956.94;;;-144.37;66.33
36258;BME280;22294;52.044;4.582;2022-08-21T01:28:14;75956.94;;;-144.37;66.29
36258;BME280;22294;52.044;4.582;2022-08-21T01:30:42;75948.75;;;-144.37;66.30
36258;BME280;22294;52.044;4.582;2022-08-21T01:33:08;75956.94;;;-144.37;66.09
36258;BME280;22294;52.044;4.582;2022-08-21T01:35:34;75959.00;;;-144.37;66.22
36258;BME280;22294;52.044;4.582;2022-08-21T01:37:59;75950.81;;;-144.37;66.33
36258;BME280;22294;52.044;4.582;2022-08-21T01:40:24;75961.03;;;-144.37;65.97
36258;BME280;22294;52.044;4.582;2022-08-21T01:42:50;75956.94;;;-144.37;66.13
36258;BME280;22294;52.044;4.582;2022-08-21T01:45:16;75956.94;;;-144.37;66.26
36258;BME280;22294;52.044;4.582;2022-08-21T01:47:42;75961.03;;;-144.37;66.23
36258;BME280;22294;52.044;4.582;2022-08-21T01:50:11;75967.16;;;-144.37;66.31
36258;BME280;22294;52.044;4.582;2022-08-21T01:52:37;75961.03;;;-144.37;66.12
36258;BME280;22294;52.044;4.582;2022-08-21T01:55:05;75965.13;;;-144.37;66.48
36258;BME280;22294;52.044;4.582;2022-08-21T01:57:31;75967.16;;;-144.37;66.56
36258;BME280;22294;52.044;4.582;2022-08-21T01:59:58;75965.13;;;-144.37;66.48
36258;BME280;22294;52.044;4.582;2022-08-21T02:02:23;75967.16;;;-144.37;66.27
36258;BME280;22294;52.044;4.582;2022-08-21T02:04:49;75963.09;;;-144.37;66.46
36258;BME280;22294;52.044;4.582;2022-08-21T02:07:14;75963.09;;;-144.37;66.46
36258;BME280;22294;52.044;4.582;2022-08-21T02:09:40;75965.13;;;-144.37;66.68
36258;BME280;22294;52.044;4.582;2022-08-21T02:12:08;75967.16;;;-144.37;66.68
36258;BME280;22294;52.044;4.582;2022-08-21T02:14:34;75965.13;;;-144.37;66.72
36258;BME280;22294;52.044;4.582;2022-08-21T02:16:59;75967.16;;;-144.37;66.97
36258;BME280;22294;52.044;4.582;2022-08-21T02:19:25;75969.22;;;-144.37;66.61
36258;BME280;22294;52.044;4.582;2022-08-21T02:21:50;75963.09;;;-144.37;67.07
36258;BME280;22294;52.044;4.582;2022-08-21T02:24:15;75971.25;;;-144.37;66.97
36258;BME280;22294;52.044;4.582;2022-08-21T02:26:41;75965.13;;;-144.37;66.97
36258;BME280;22294;52.044;4.582;2022-08-21T02:29:06;75971.25;;;-144.37;66.84
36258;BME280;22294;52.044;4.582;2022-08-21T02:31:31;75981.50;;;-144.37;66.93
36258;BME280;22294;52.044;4.582;2022-08-21T02:33:57;75985.56;;;-144.37;66.83
36258;BME280;22294;52.044;4.582;2022-08-21T02:36:22;75989.66;;;-144.37;66.86
36258;BME280;22294;52.044;4.582;2022-08-21T02:38:48;75989.66;;;-144.37;66.75
36258;BME280;22294;52.044;4.582;2022-08-21T02:41:17;75991.72;;;-144.37;67.22
36258;BME280;22294;52.044;4.582;2022-08-21T02:43:43;75991.72;;;-144.37;67.43
36258;BME280;22294;52.044;4.582;2022-08-21T02:46:10;75991.72;;;-144.37;67.09
36258;BME280;22294;52.044;4.582;2022-08-21T02:48:37;75995.81;;;-144.37;66.91
36258;BME280;22294;52.044;4.582;2022-08-21T02:51:09;75995.81;;;-144.37;66.93
36258;BME280;22294;52.044;4.582;2022-08-21T02:53:35;75997.84;;;-144.37;66.94
36258;BME280;22294;52.044;4.582;2022-08-21T02:56:03;75999.91;;;-144.37;66.93
36258;BME280;22294;52.044;4.582;2022-08-21T02:58:35;75997.84;;;-144.37;66.88
36258;BME280;22294;52.044;4.582;2022-08-21T03:01:02;76006.03;;;-144.37;67.23
36258;BME280;22294;52.044;4.582;2022-08-21T03:03:28;76006.03;;;-144.37;67.24
36258;BME280;22294;52.044;4.582;2022-08-21T03:05:54;76006.03;;;-144.37;67.32
36258;BME280;22294;52.044;4.582;2022-08-21T03:08:20;76003.97;;;-144.37;67.11
36258;BME280;22294;52.044;4.582;2022-08-21T03:10:50;76008.06;;;-144.37;67.41
36258;BME280;22294;52.044;4.582;2022-08-21T03:13:17;76008.06;;;-144.37;67.73
36258;BME280;22294;52.044;4.582;2022-08-21T03:15:43;76010.13;;;-144.37;67.78
36258;BME280;22294;52.044;4.582;2022-08-21T03:18:10;76006.03;;;-144.37;67.70
36258;BME280;22294;52.044;4.582;2022-08-21T03:20:36;76006.03;;;-144.37;68.17
36258;BME280;22294;52.044;4.582;2022-08-21T03:23:03;76001.94;;;-144.37;68.10
36258;BME280;22294;52.044;4.582;2022-08-21T03:25:30;75995.81;;;-144.37;67.89
36258;BME280;22294;52.044;4.582;2022-08-21T03:27:59;75995.81;;;-144.37;67.95
36258;BME280;22294;52.044;4.582;2022-08-21T03:30:24;75993.75;;;-144.37;67.82
36258;BME280;22294;52.044;4.582;2022-08-21T03:32:50;75997.84;;;-144.37;67.85
36258;BME280;22294;52.044;4.582;2022-08-21T03:35:19;75993.75;;;-144.37;67.76
36258;BME280;22294;52.044;4.582;2022-08-21T03:37:44;75995.81;;;-144.37;67.66
36258;BME280;22294;52.044;4.582;2022-08-21T03:40:12;75999.91;;;-144.37;67.65
36258;BME280;22294;52.044;4.582;2022-08-21T03:42:38;76003.97;;;-144.37;67.52
36258;BME280;22294;52.044;4.582;2022-08-21T03:45:04;76001.94;;;-144.37;67.85
36258;BME280;22294;52.044;4.582;2022-08-21T03:47:30;76001.94;;;-144.37;67.76
36258;BME280;22294;52.044;4.582;2022-08-21T03:49:55;75999.91;;;-144.37;67.80
36258;BME280;22294;52.044;4.582;2022-08-21T03:52:21;76003.97;;;-144.37;67.82
36258;BME280;22294;52.044;4.582;2022-08-21T03:54:46;76006.03;;;-144.37;67.61
36258;BME280;22294;52.044;4.582;2022-08-21T03:57:11;76006.03;;;-144.37;67.81
36258;BME280;22294;52.044;4.582;2022-08-21T03:59:37;76001.94;;;-144.37;67.61
36258;BME280;22294;52.044;4.582;2022-08-21T04:02:06;75999.91;;;-144.37;67.80
36258;BME280;22294;52.044;4.582;2022-08-21T04:04:32;76006.03;;;-144.37;67.42
36258;BME280;22294;52.044;4.582;2022-08-21T04:06:57;76008.06;;;-144.37;67.54
36258;BME280;22294;52.044;4.582;2022-08-21T04:09:23;76014.22;;;-144.37;67.73
36258;BME280;22294;52.044;4.582;2022-08-21T04:11:49;76012.16;;;-144.37;67.75
36258;BME280;22294;52.044;4.582;2022-08-21T04:14:15;76018.31;;;-144.37;68.17
36258;BME280;22294;52.044;4.582;2022-08-21T04:16:42;76016.25;;;-144.37;68.04
36258;BME280;22294;52.044;4.582;2022-08-21T04:19:08;76014.22;;;-144.37;67.95
36258;BME280;22294;52.044;4.582;2022-08-21T04:21:35;76022.38;;;-144.37;68.00
36258;BME280;22294;52.044;4.582;2022-08-21T04:24:01;76022.38;;;-144.37;68.30
36258;BME280;22294;52.044;4.582;2022-08-21T04:26:28;76022.38;;;-144.37;68.14
36258;BME280;22294;52.044;4.582;2022-08-21T04:28:53;76020.34;;;-144.37;68.25
36258;BME280;22294;52.044;4.582;2022-08-21T04:31:23;76024.44;;;-144.37;68.33
36258;BME280;22294;52.044;4.582;2022-08-21T04:33:48;76018.31;;;-144.37;68.36
36258;BME280;22294;52.044;4.582;2022-08-21T04:36:13;76028.53;;;-144.37;68.63
36258;BME280;22294;52.044;4.582;2022-08-21T04:38:39;76030.56;;;-144.37;68.83
36258;BME280;22294;52.044;4.582;2022-08-21T04:41:04;76028.53;;;-144.37;68.59
36258;BME280;22294;52.044;4.582;2022-08-21T04:43:30;76024.44;;;-144.37;68.77
36258;BME280;22294;52.044;4.582;2022-08-21T04:45:55;76030.56;;;-144.37;68.89
36258;BME280;22294;52.044;4.582;2022-08-21T04:48:22;76030.56;;;-144.37;69.15
36258;BME280;22294;52.044;4.582;2022-08-21T04:50:59;76034.66;;;-144.37;69.14
36258;BME280;22294;52.044;4.582;2022-08-21T04:53:33;76034.66;;;-144.37;69.11
36258;BME280;22294;52.044;4.582;2022-08-21T04:56:04;76034.66;;;-144.37;69.45
36258;BME280;22294;52.044;4.582;2022-08-21T04:58:34;76032.63;;;-144.37;69.08
36258;BME280;22294;52.044;4.582;2022-08-21T05:01:00;76040.78;;;-144.37;69.71
36258;BME280;22294;52.044;4.582;2022-08-21T05:03:27;76038.75;;;-144.37;69.50
36258;BME280;22294;52.044;4.582;2022-08-21T05:05:53;76034.66;;;-144.37;69.53
36258;BME280;22294;52.044;4.582;2022-08-21T05:08:21;76036.69;;;-144.37;69.92
36258;BME280;22294;52.044;4.582;2022-08-21T05:10:48;76026.47;;;-144.37;69.75
36258;BME280;22294;52.044;4.582;2022-08-21T05:13:14;76022.38;;;-144.37;69.78
36258;BME280;22294;52.044;4.582;2022-08-21T05:15:40;76018.31;;;-144.37;70.03
36258;BME280;22294;52.044;4.582;2022-08-21T05:18:06;76022.38;;;-144.37;70.29
36258;BME280;22294;52.044;4.582;2022-08-21T05:20:32;76014.22;;;-144.37;70.27
36258;BME280;22294;52.044;4.582;2022-08-21T05:22:59;76014.22;;;-144.37;70.10
36258;BME280;22294;52.044;4.582;2022-08-21T05:25:25;76014.22;;;-144.37;70.62
36258;BME280;22294;52.044;4.582;2022-08-21T05:27:50;76016.25;;;-144.37;70.71
36258;BME280;22294;52.044;4.582;2022-08-21T05:30:15;76003.97;;;-144.37;70.69
36258;BME280;22294;52.044;4.582;2022-08-21T05:32:41;75997.84;;;-144.37;70.38
36258;BME280;22294;52.044;4.582;2022-08-21T05:35:07;75993.75;;;-144.37;70.80
36258;BME280;22294;52.044;4.582;2022-08-21T05:37:33;75985.56;;;-144.37;70.42
36258;BME280;22294;52.044;4.582;2022-08-21T05:39:59;75973.31;;;-144.37;70.10
36258;BME280;22294;52.044;4.582;2022-08-21T05:42:25;75965.13;;;-144.37;70.22
36258;BME280;22294;52.044;4.582;2022-08-21T05:44:51;75971.25;;;-144.37;70.66
36258;BME280;22294;52.044;4.582;2022-08-21T05:47:16;75963.09;;;-144.37;70.64
36258;BME280;22294;52.044;4.582;2022-08-21T05:49:41;75950.81;;;-144.37;70.10
36258;BME280;22294;52.044;4.582;2022-08-21T05:52:06;75948.75;;;-144.37;70.37
36258;BME280;22294;52.044;4.582;2022-08-21T05:54:32;75936.50;;;-144.37;70.38
36258;BME280;22294;52.044;4.582;2022-08-21T05:56:57;75936.50;;;-144.37;70.76
36258;BME280;22294;52.044;4.582;2022-08-21T05:59:23;75924.22;;;-144.37;70.22
36258;BME280;22294;52.044;4.582;2022-08-21T06:01:48;75924.22;;;-144.37;70.29
36258;BME280;22294;52.044;4.582;2022-08-21T06:04:14;75926.28;;;-144.37;70.19
36258;BME280;22294;52.044;4.582;2022-08-21T06:06:40;75911.94;;;-144.37;69.92
36258;BME280;22294;52.044;4.582;2022-08-21T06:09:05;75909.91;;;-144.37;70.19
36258;BME280;22294;52.044;4.582;2022-08-21T06:11:31;75899.69;;;-144.37;70.07
36258;BME280;22294;52.044;4.582;2022-08-21T06:13:57;75901.72;;;-144.37;70.29
36258;BME280;22294;52.044;4.582;2022-08-21T06:16:25;75891.50;;;-144.37;69.79
36258;BME280;22294;52.044;4.582;2022-08-21T06:18:51;75891.50;;;-144.37;70.56
36258;BME280;22294;52.044;4.582;2022-08-21T06:21:16;75885.38;;;-144.37;70.28
36258;BME280;22294;52.044;4.582;2022-08-21T06:23:42;75871.06;;;-144.37;70.38
36258;BME280;22294;52.044;4.582;2022-08-21T06:26:09;75860.81;;;-144.37;69.93
36258;BME280;22294;52.044;4.582;2022-08-21T06:28:35;75858.78;;;-144.37;70.01
36258;BME280;22294;52.044;4.582;2022-08-21T06:31:18;75864.91;;;-144.37;70.19
36258;BME280;22294;52.044;4.582;2022-08-21T06:33:44;75852.66;;;-144.37;70.03
36258;BME280;22294;52.044;4.582;2022-08-21T06:36:10;75844.47;;;-144.37;69.79
36258;BME280;22294;52.044;4.582;2022-08-21T06:38:36;75836.28;;;-144.37;69.80
36258;BME280;22294;52.044;4.582;2022-08-21T06:41:02;75830.16;;;-144.37;69.53
36258;BME280;22294;52.044;4.582;2022-08-21T06:43:27;75828.09;;;-144.37;69.80
36258;BME280;22294;52.044;4.582;2022-08-21T06:45:52;75817.88;;;-144.37;69.50
36258;BME280;22294;52.044;4.582;2022-08-21T06:48:18;75807.66;;;-144.37;69.75
36258;BME280;22294;52.044;4.582;2022-08-21T06:50:43;75799.47;;;-144.37;69.69
36258;BME280;22294;52.044;4.582;2022-08-21T06:53:12;75795.38;;;-144.37;69.20
36258;BME280;22294;52.044;4.582;2022-08-21T06:55:38;75785.16;;;-144.37;69.15
36258;BME280;22294;52.044;4.582;2022-08-21T06:58:04;75781.06;;;-144.37;68.83
36258;BME280;22294;52.044;4.582;2022-08-21T07:00:30;75779.03;;;-144.37;69.21
36258;BME280;22294;52.044;4.582;2022-08-21T07:02:56;75770.84;;;-144.37;69.01
36258;BME280;22294;52.044;4.582;2022-08-21T07:05:25;75768.81;;;-144.37;69.10
36258;BME280;22294;52.044;4.582;2022-08-21T07:07:50;75752.44;;;-144.37;68.66
36258;BME280;22294;52.044;4.582;2022-08-21T07:10:15;75744.25;;;-144.37;68.24
36258;BME280;22294;52.044;4.582;2022-08-21T07:12:41;75732.00;;;-144.37;68.34
36258;BME280;22294;52.044;4.582;2022-08-21T07:15:06;75725.88;;;-144.37;68.28
36258;BME280;22294;52.044;4.582;2022-08-21T07:17:32;75723.81;;;-144.37;68.20
36258;BME280;22294;52.044;4.582;2022-08-21T07:19:57;75715.63;;;-144.37;68.04
36258;BME280;22294;52.044;4.582;2022-08-21T07:22:23;75709.50;;;-144.37;67.46
36258;BME280;22294;52.044;4.582;2022-08-21T07:24:49;75709.50;;;-144.37;67.77
36258;BME280;22294;52.044;4.582;2022-08-21T07:27:14;75703.38;;;-144.37;67.75
36258;BME280;22294;52.044;4.582;2022-08-21T07:29:40;75689.06;;;-144.37;67.70
36258;BME280;22294;52.044;4.582;2022-08-21T07:32:05;75664.50;;;-144.37;67.14
36258;BME280;22294;52.044;4.582;2022-08-21T07:34:31;75646.09;;;-144.37;67.01
36258;BME280;22294;52.044;4.582;2022-08-21T07:36:57;75623.63;;;-144.37;66.67
36258;BME280;22294;52.044;4.582;2022-08-21T07:39:23;75607.25;;;-144.37;66.17
36258;BME280;22294;52.044;4.582;2022-08-21T07:41:48;75588.84;;;-144.37;65.74
36258;BME280;22294;52.044;4.582;2022-08-21T07:44:14;75584.75;;;-144.37;65.05
36258;BME280;22294;52.044;4.582;2022-08-21T07:46:39;75580.69;;;-144.37;64.93
36258;BME280;22294;52.044;4.582;2022-08-21T07:49:04;75566.34;;;-144.37;64.80
36258;BME280;22294;52.044;4.582;2022-08-21T07:51:30;75556.13;;;-144.37;64.59
36258;BME280;22294;52.044;4.582;2022-08-21T07:53:57;75558.19;;;-144.37;63.81
36258;BME280;22294;52.044;4.582;2022-08-21T07:56:24;75550.00;;;-144.37;64.00
36258;BME280;22294;52.044;4.582;2022-08-21T07:58:49;75543.88;;;-144.37;63.40
36258;BME280;22294;52.044;4.582;2022-08-21T08:01:15;75529.56;;;-144.37;63.15
36258;BME280;22294;52.044;4.582;2022-08-21T08:03:40;75500.94;;;-144.37;63.34
36258;BME280;22294;52.044;4.582;2022-08-21T08:06:06;75486.63;;;-144.37;62.76
36258;BME280;22294;52.044;4.582;2022-08-21T08:08:33;75464.13;;;-144.37;62.26
36258;BME280;22294;52.044;4.582;2022-08-21T08:10:59;75457.97;;;-144.37;61.90
36258;BME280;22294;52.044;4.582;2022-08-21T08:13:26;75462.06;;;-144.37;61.57
36258;BME280;22294;52.044;4.582;2022-08-21T08:15:51;75464.13;;;-144.37;61.55
36258;BME280;22294;52.044;4.582;2022-08-21T08:18:17;75466.16;;;-144.37;61.78
36258;BME280;22294;52.044;4.582;2022-08-21T08:20:42;75466.16;;;-144.37;61.50
36258;BME280;22294;52.044;4.582;2022-08-21T08:23:14;75466.16;;;-144.37;60.97
36258;BME280;22294;52.044;4.582;2022-08-21T08:25:40;75466.16;;;-144.37;60.69
36258;BME280;22294;52.044;4.582;2022-08-21T08:28:06;75472.28;;;-144.37;60.65
36258;BME280;22294;52.044;4.582;2022-08-21T08:30:31;75482.53;;;-144.37;60.75
36258;BME280;22294;52.044;4.582;2022-08-21T08:32:57;75472.28;;;-144.37;60.54
36258;BME280;22294;52.044;4.582;2022-08-21T08:35:23;75462.06;;;-144.37;61.15
36258;BME280;22294;52.044;4.582;2022-08-21T08:37:48;75447.75;;;-144.37;60.36
36258;BME280;22294;52.044;4.582;2022-08-21T08:40:18;75433.44;;;-144.37;59.60
36258;BME280;22294;52.044;4.582;2022-08-21T08:42:46;75419.13;;;-144.37;59.05
36258;BME280;22294;52.044;4.582;2022-08-21T08:45:18;75406.88;;;-144.37;59.53
36258;BME280;22294;52.044;4.582;2022-08-21T08:47:52;75392.56;;;-144.37;58.42
36258;BME280;22294;52.044;4.582;2022-08-21T08:50:40;75390.50;;;-144.37;58.19
36258;BME280;22294;52.044;4.582;2022-08-21T08:53:14;75386.41;;;-144.37;57.94
36258;BME280;22294;52.044;4.582;2022-08-21T08:55:44;75374.16;;;-144.37;58.36
36258;BME280;22294;52.044;4.582;2022-08-21T08:58:18;75363.91;;;-144.37;57.20
36258;BME280;22294;52.044;4.582;2022-08-21T09:00:47;75361.88;;;-144.37;57.18
36258;BME280;22294;52.044;4.582;2022-08-21T09:03:15;75337.34;;;-144.37;57.14
36258;BME280;22294;52.044;4.582;2022-08-21T09:05:53;75318.94;;;-144.37;55.38
36258;BME280;22294;52.044;4.582;2022-08-21T09:11:35;75263.72;;;-144.37;54.87
36258;BME280;22294;52.044;4.582;2022-08-21T09:17:36;75220.78;;;-144.37;54.06
36258;BME280;22294;52.044;4.582;2022-08-21T09:20:23;75233.06;;;-144.37;53.81
36258;BME280;22294;52.044;4.582;2022-08-21T09:23:08;75259.66;;;-144.37;52.66
36258;BME280;22294;52.044;4.582;2022-08-21T09:25:59;75292.34;;;-144.37;53.38
36258;BME280;22294;52.044;4.582;2022-08-21T09:28:31;75320.97;;;-144.37;53.50
36258;BME280;22294;52.044;4.582;2022-08-21T09:30:56;75337.34;;;-144.37;52.75
36258;BME280;22294;52.044;4.582;2022-08-21T09:33:28;75347.56;;;-144.37;53.05
36258;BME280;22294;52.044;4.582;2022-08-21T09:35:55;75351.66;;;-144.37;53.18
36258;BME280;22294;52.044;4.582;2022-08-21T09:38:31;75368.00;;;-144.37;53.20
36258;BME280;22294;52.044;4.582;2022-08-21T09:41:05;75372.09;;;-144.37;53.30
36258;BME280;22294;52.044;4.582;2022-08-21T09:43:32;75368.00;;;-144.37;54.00
36258;BME280;22294;52.044;4.582;2022-08-21T09:48:28;75374.16;;;-144.37;55.49
36258;BME280;22294;52.044;4.582;2022-08-21T09:51:07;75378.25;;;-144.37;55.41
36258;BME280;22294;52.044;4.582;2022-08-21T09:53:33;75380.28;;;-144.37;55.15
36258;BME280;22294;52.044;4.582;2022-08-21T09:56:03;75380.28;;;-144.37;54.76
36258;BME280;22294;52.044;4.582;2022-08-21T09:58:52;75390.50;;;-144.37;54.79
36258;BME280;22294;52.044;4.582;2022-08-21T10:01:20;75386.41;;;-144.37;55.41
36258;BME280;22294;52.044;4.582;2022-08-21T10:03:46;75359.84;;;-144.37;54.13
36258;BME280;22294;52.044;4.582;2022-08-21T10:06:26;75337.34;;;-144.37;52.63
36258;BME280;22294;52.044;4.582;2022-08-21T10:09:09;75308.72;;;-144.37;52.72
36258;BME280;22294;52.044;4.582;2022-08-21T10:11:35;75284.19;;;-144.37;52.01
36258;BME280;22294;52.044;4.582;2022-08-21T10:14:05;75251.47;;;-144.37;52.15
36258;BME280;22294;52.044;4.582;2022-08-21T10:16:45;75237.16;;;-144.37;51.29
36258;BME280;22294;52.044;4.582;2022-08-21T10:19:48;75233.06;;;-144.37;50.95
36258;BME280;22294;52.044;4.582;2022-08-21T10:22:36;75228.97;;;-144.37;50.20
36258;BME280;22294;52.044;4.582;2022-08-21T10:25:21;75216.69;;;-144.37;50.34
36258;BME280;22294;52.044;4.582;2022-08-21T10:33:07;75218.75;;;-144.37;50.22
36258;BME280;22294;52.044;4.582;2022-08-21T10:36:31;75216.69;;;-144.37;51.00
36258;BME280;22294;52.044;4.582;2022-08-21T10:44:26;75184.00;;;-144.37;50.23
36258;BME280;22294;52.044;4.582;2022-08-21T10:47:08;75155.38;;;-144.37;49.27
36258;BME280;22294;52.044;4.582;2022-08-21T10:49:59;75151.28;;;-144.37;48.38
36258;BME280;22294;52.044;4.582;2022-08-21T10:52:31;75141.06;;;-144.37;47.82
36258;BME280;22294;52.044;4.582;2022-08-21T10:55:09;75141.06;;;-144.37;47.78
36258;BME280;22294;52.044;4.582;2022-08-21T10:57:43;75134.91;;;-144.37;47.59
36258;BME280;22294;52.044;4.582;2022-08-21T11:00:13;75141.06;;;-144.37;48.02
36258;BME280;22294;52.044;4.582;2022-08-21T11:02:49;75128.78;;;-144.37;48.99
36258;BME280;22294;52.044;4.582;2022-08-21T11:05:24;75116.50;;;-144.37;48.96
36258;BME280;22294;52.044;4.582;2022-08-21T11:08:11;75122.66;;;-144.37;48.34
36258;BME280;22294;52.044;4.582;2022-08-21T11:11:03;75143.09;;;-144.37;48.40
36258;BME280;22294;52.044;4.582;2022-08-21T11:13:36;75165.59;;;-144.37;48.46
36258;BME280;22294;52.044;4.582;2022-08-21T11:16:23;75173.75;;;-144.37;48.58
36258;BME280;22294;52.044;4.582;2022-08-21T11:18:57;75169.69;;;-144.37;48.37
36258;BME280;22294;52.044;4.582;2022-08-21T11:24:02;75147.19;;;-144.37;47.94
36258;BME280;22294;52.044;4.582;2022-08-21T11:29:23;75132.88;;;-144.37;47.04
36258;BME280;22294;52.044;4.582;2022-08-21T11:40:27;75067.44;;;-144.37;44.86
36258;BME280;22294;52.044;4.582;2022-08-21T11:43:30;75077.66;;;-144.37;44.24
36258;BME280;22294;52.044;4.582;2022-08-21T11:46:26;75077.66;;;-144.37;44.50
36258;BME280;22294;52.044;4.582;2022-08-21T11:51:33;75081.75;;;-144.37;44.01
36258;BME280;22294;52.044;4.582;2022-08-21T11:54:29;75085.84;;;-144.37;44.14
36258;BME280;22294;52.044;4.582;2022-08-21T11:57:19;75104.25;;;-144.37;44.06
36258;BME280;22294;52.044;4.582;2022-08-21T12:02:31;75069.50;;;-144.37;43.97
36258;BME280;22294;52.044;4.582;2022-08-21T12:05:06;75061.31;;;-144.37;43.66
36258;BME280;22294;52.044;4.582;2022-08-21T12:07:39;75063.34;;;-144.37;43.95
36258;BME280;22294;52.044;4.582;2022-08-21T12:10:14;75067.44;;;-144.37;43.81
36258;BME280;22294;52.044;4.582;2022-08-21T12:12:42;75067.44;;;-144.37;44.00
36258;BME280;22294;52.044;4.582;2022-08-21T12:17:55;75081.75;;;-144.37;43.61
36258;BME280;22294;52.044;4.582;2022-08-21T12:22:54;75083.81;;;-144.37;42.95
36258;BME280;22294;52.044;4.582;2022-08-21T12:25:21;75075.63;;;-144.37;42.71
36258;BME280;22294;52.044;4.582;2022-08-21T12:27:51;75065.41;;;-144.37;41.91
36258;BME280;22294;52.044;4.582;2022-08-21T12:32:59;75085.84;;;-144.37;41.92
36258;BME280;22294;52.044;4.582;2022-08-21T12:35:33;75083.81;;;-144.37;41.81
36258;BME280;22294;52.044;4.582;2022-08-21T12:38:17;75085.84;;;-144.37;41.91
36258;BME280;22294;52.044;4.582;2022-08-21T12:40:50;75075.63;;;-144.37;41.78
36258;BME280;22294;52.044;4.582;2022-08-21T12:43:24;75073.56;;;-144.37;40.96
36258;BME280;22294;52.044;4.582;2022-08-21T12:45:51;75061.31;;;-144.37;40.98
36258;BME280;22294;52.044;4.582;2022-08-21T12:48:42;75047.00;;;-144.37;40.01
36258;BME280;22294;52.044;4.582;2022-08-21T12:51:13;75042.91;;;-144.37;40.19
36258;BME280;22294;52.044;4.582;2022-08-21T12:53:51;75042.91;;;-144.37;41.24
36258;BME280;22294;52.044;4.582;2022-08-21T12:56:20;75057.22;;;-144.37;40.89
36258;BME280;22294;52.044;4.582;2022-08-21T12:58:51;75057.22;;;-144.37;40.75
36258;BME280;22294;52.044;4.582;2022-08-21T13:01:27;75055.19;;;-144.37;41.12
36258;BME280;22294;52.044;4.582;2022-08-21T13:03:55;75047.00;;;-144.37;41.21
36258;BME280;22294;52.044;4.582;2022-08-21T13:06:23;75038.81;;;-144.37;40.97
36258;BME280;22294;52.044;4.582;2022-08-21T13:08:57;75040.88;;;-144.37;40.67
36258;BME280;22294;52.044;4.582;2022-08-21T13:11:24;75040.88;;;-144.37;40.63
36258;BME280;22294;52.044;4.582;2022-08-21T13:13:51;75038.81;;;-144.37;40.77
36258;BME280;22294;52.044;4.582;2022-08-21T13:16:35;75044.97;;;-144.37;40.49
36258;BME280;22294;52.044;4.582;2022-08-21T13:19:04;75049.03;;;-144.37;40.53
36258;BME280;22294;52.044;4.582;2022-08-21T13:21:40;75049.03;;;-144.37;39.95
36258;BME280;22294;52.044;4.582;2022-08-21T13:24:21;75057.22;;;-144.37;39.76
36258;BME280;22294;52.044;4.582;2022-08-21T13:26:48;75049.03;;;-144.37;39.80
36258;BME280;22294;52.044;4.582;2022-08-21T13:29:16;75047.00;;;-144.37;39.79
36258;BME280;22294;52.044;4.582;2022-08-21T13:31:49;75053.13;;;-144.37;39.31
36258;BME280;22294;52.044;4.582;2022-08-21T13:34:15;75040.88;;;-144.37;38.97
36258;BME280;22294;52.044;4.582;2022-08-21T13:36:43;75038.81;;;-144.37;39.05
36258;BME280;22294;52.044;4.582;2022-08-21T13:39:11;75044.97;;;-144.37;38.51